sensor_id;sensor_type;location;lat;lon;timestamp;P1;durP1;ratioP1;P2;durP2;ratioP2
9852;SDS011;4965;43.238;27.864;2022-10-31T00:02:19;9.40;;;6.18;;
9852;SDS011;4965;43.238;27.864;2022-10-31T00:04:46;13.20;;;6.35;;
9852;SDS011;4965;43.238;27.864;2022-10-31T00:07:13;10.73;;;5.82;;
9852;SDS011;4965;43.238;27.864;2022-10-31T00:09:40;10.95;;;6.10;;
9852;SDS011;4965;43.238;27.864;2022-10-31T00:12:08;16.80;;;5.97;;
9852;SDS011;4965;43.238;27.864;2022-10-31T00:14:35;7.78;;;5.63;;
9852;SDS011;4965;43.238;27.864;2022-10-31T00:17:02;13.20;;;5.68;;
9852;SDS011;4965;43.238;27.864;2022-10-31T00:19:29;11.52;;;5.63;;
9852;SDS011;4965;43.238;27.864;2022-10-31T00:21:55;10.98;;;5.40;;
9852;SDS011;4965;43.238;27.864;2022-10-31T00:24:22;8.38;;;5.82;;
9852;SDS011;4965;43.238;27.864;2022-10-31T00:26:49;10.80;;;5.43;;
9852;SDS011;4965;43.238;27.864;2022-10-31T00:29:17;8.02;;;5.45;;
9852;SDS011;4965;43.238;27.864;2022-10-31T00:31:44;19.20;;;5.82;;
9852;SDS011;4965;43.238;27.864;2022-10-31T00:34:11;7.20;;;5.00;;
9852;SDS011;4965;43.238;27.864;2022-10-31T00:36:38;9.63;;;6.18;;
9852;SDS011;4965;43.238;27.864;2022-10-31T00:39:05;8.02;;;6.07;;
9852;SDS011;4965;43.238;27.864;2022-10-31T00:41:32;12.23;;;7.57;;
9852;SDS011;4965;43.238;27.864;2022-10-31T00:43:59;18.30;;;6.88;;
9852;SDS011;4965;43.238;27.864;2022-10-31T00:46:27;10.20;;;6.22;;
9852;SDS011;4965;43.238;27.864;2022-10-31T00:48:54;10.38;;;5.88;;
9852;SDS011;4965;43.238;27.864;2022-10-31T00:51:21;11.73;;;5.72;;
9852;SDS011;4965;43.238;27.864;2022-10-31T00:53:47;14.77;;;6.38;;
9852;SDS011;4965;43.238;27.864;2022-10-31T00:56:14;13.63;;;5.25;;
9852;SDS011;4965;43.238;27.864;2022-10-31T00:58:41;8.95;;;5.43;;
9852;SDS011;4965;43.238;27.864;2022-10-31T01:01:08;11.13;;;5.63;;
9852;SDS011;4965;43.238;27.864;2022-10-31T01:03:36;9.77;;;5.38;;
9852;SDS011;4965;43.238;27.864;2022-10-31T01:06:05;9.93;;;5.38;;
9852;SDS011;4965;43.238;27.864;2022-10-31T01:08:34;11.52;;;5.93;;
9852;SDS011;4965;43.238;27.864;2022-10-31T01:11:04;10.32;;;5.55;;
9852;SDS011;4965;43.238;27.864;2022-10-31T01:13:33;10.85;;;5.72;;
9852;SDS011;4965;43.238;27.864;2022-10-31T01:16:00;13.52;;;5.43;;
9852;SDS011;4965;43.238;27.864;2022-10-31T01:18:28;8.70;;;5.68;;
9852;SDS011;4965;43.238;27.864;2022-10-31T01:21:00;6.00;;;4.75;;
9852;SDS011;4965;43.238;27.864;2022-10-31T01:23:28;9.57;;;5.35;;
9852;SDS011;4965;43.238;27.864;2022-10-31T01:25:59;10.13;;;5.50;;
9852;SDS011;4965;43.238;27.864;2022-10-31T01:28:28;8.65;;;5.53;;
9852;SDS011;4965;43.238;27.864;2022-10-31T01:30:55;8.80;;;5.60;;
9852;SDS011;4965;43.238;27.864;2022-10-31T01:33:26;6.18;;;5.18;;
9852;SDS011;4965;43.238;27.864;2022-10-31T01:35:53;11.60;;;5.53;;
9852;SDS011;4965;43.238;27.864;2022-10-31T01:38:22;9.38;;;5.40;;
9852;SDS011;4965;43.238;27.864;2022-10-31T01:40:49;9.55;;;5.75;;
9852;SDS011;4965;43.238;27.864;2022-10-31T01:43:16;8.45;;;5.90;;
9852;SDS011;4965;43.238;27.864;2022-10-31T01:45:43;11.43;;;6.50;;
9852;SDS011;4965;43.238;27.864;2022-10-31T01:48:16;7.90;;;5.82;;
9852;SDS011;4965;43.238;27.864;2022-10-31T01:50:48;10.95;;;5.80;;
9852;SDS011;4965;43.238;27.864;2022-10-31T01:53:18;10.10;;;5.85;;
9852;SDS011;4965;43.238;27.864;2022-10-31T01:55:47;7.57;;;5.10;;
9852;SDS011;4965;43.238;27.864;2022-10-31T01:58:14;6.95;;;5.18;;
9852;SDS011;4965;43.238;27.864;2022-10-31T02:00:45;9.75;;;5.53;;
9852;SDS011;4965;43.238;27.864;2022-10-31T02:03:14;10.55;;;6.05;;
9852;SDS011;4965;43.238;27.864;2022-10-31T02:05:42;12.43;;;6.55;;
9852;SDS011;4965;43.238;27.864;2022-10-31T02:08:11;8.30;;;5.97;;
9852;SDS011;4965;43.238;27.864;2022-10-31T02:10:41;11.20;;;6.60;;
9852;SDS011;4965;43.238;27.864;2022-10-31T02:13:10;9.00;;;6.10;;
9852;SDS011;4965;43.238;27.864;2022-10-31T02:15:38;15.32;;;6.28;;
9852;SDS011;4965;43.238;27.864;2022-10-31T02:18:06;13.27;;;6.50;;
9852;SDS011;4965;43.238;27.864;2022-10-31T02:20:37;9.95;;;6.30;;
9852;SDS011;4965;43.238;27.864;2022-10-31T02:23:20;15.65;;;7.13;;
9852;SDS011;4965;43.238;27.864;2022-10-31T02:29:15;21.13;;;8.85;;
9852;SDS011;4965;43.238;27.864;2022-10-31T02:32:05;16.77;;;9.65;;
9852;SDS011;4965;43.238;27.864;2022-10-31T02:34:42;16.95;;;8.82;;
9852;SDS011;4965;43.238;27.864;2022-10-31T02:37:19;18.67;;;8.95;;
9852;SDS011;4965;43.238;27.864;2022-10-31T02:39:56;13.02;;;8.65;;
9852;SDS011;4965;43.238;27.864;2022-10-31T02:42:32;7.55;;;6.32;;
9852;SDS011;4965;43.238;27.864;2022-10-31T02:45:05;9.70;;;6.40;;
9852;SDS011;4965;43.238;27.864;2022-10-31T02:47:39;10.40;;;6.60;;
9852;SDS011;4965;43.238;27.864;2022-10-31T02:50:08;8.93;;;6.80;;
9852;SDS011;4965;43.238;27.864;2022-10-31T02:52:40;13.30;;;6.95;;
9852;SDS011;4965;43.238;27.864;2022-10-31T02:55:10;10.98;;;6.25;;
9852;SDS011;4965;43.238;27.864;2022-10-31T02:57:39;11.05;;;6.82;;
9852;SDS011;4965;43.238;27.864;2022-10-31T03:00:09;11.68;;;6.57;;
9852;SDS011;4965;43.238;27.864;2022-10-31T03:02:41;17.13;;;6.70;;
9852;SDS011;4965;43.238;27.864;2022-10-31T03:08:12;10.80;;;6.13;;
9852;SDS011;4965;43.238;27.864;2022-10-31T03:10:48;13.82;;;6.55;;
9852;SDS011;4965;43.238;27.864;2022-10-31T03:13:20;12.63;;;6.75;;
9852;SDS011;4965;43.238;27.864;2022-10-31T03:15:56;11.45;;;5.95;;
9852;SDS011;4965;43.238;27.864;2022-10-31T03:18:31;12.30;;;6.20;;
9852;SDS011;4965;43.238;27.864;2022-10-31T03:21:04;13.27;;;6.75;;
9852;SDS011;4965;43.238;27.864;2022-10-31T03:23:34;13.65;;;6.80;;
9852;SDS011;4965;43.238;27.864;2022-10-31T03:26:04;14.48;;;7.97;;
9852;SDS011;4965;43.238;27.864;2022-10-31T03:28:34;11.15;;;6.10;;
9852;SDS011;4965;43.238;27.864;2022-10-31T03:31:04;12.00;;;6.03;;
9852;SDS011;4965;43.238;27.864;2022-10-31T03:33:35;21.33;;;6.78;;
9852;SDS011;4965;43.238;27.864;2022-10-31T03:36:05;14.10;;;7.10;;
9852;SDS011;4965;43.238;27.864;2022-10-31T03:38:36;14.18;;;8.00;;
9852;SDS011;4965;43.238;27.864;2022-10-31T03:41:06;20.50;;;9.52;;
9852;SDS011;4965;43.238;27.864;2022-10-31T03:43:38;10.43;;;7.80;;
9852;SDS011;4965;43.238;27.864;2022-10-31T03:46:08;16.27;;;7.72;;
9852;SDS011;4965;43.238;27.864;2022-10-31T03:48:37;10.80;;;6.70;;
9852;SDS011;4965;43.238;27.864;2022-10-31T03:51:06;9.73;;;6.47;;
9852;SDS011;4965;43.238;27.864;2022-10-31T03:53:40;10.65;;;6.07;;
9852;SDS011;4965;43.238;27.864;2022-10-31T03:56:15;11.15;;;6.10;;
9852;SDS011;4965;43.238;27.864;2022-10-31T03:58:47;11.70;;;6.07;;
9852;SDS011;4965;43.238;27.864;2022-10-31T04:01:21;12.45;;;6.45;;
9852;SDS011;4965;43.238;27.864;2022-10-31T04:03:52;13.48;;;6.13;;
9852;SDS011;4965;43.238;27.864;2022-10-31T04:06:19;9.68;;;6.20;;
9852;SDS011;4965;43.238;27.864;2022-10-31T04:08:48;12.85;;;6.15;;
9852;SDS011;4965;43.238;27.864;2022-10-31T04:11:21;14.55;;;6.78;;
9852;SDS011;4965;43.238;27.864;2022-10-31T04:13:52;10.55;;;6.30;;
9852;SDS011;4965;43.238;27.864;2022-10-31T04:16:20;20.98;;;7.38;;
9852;SDS011;4965;43.238;27.864;2022-10-31T04:18:49;14.57;;;7.28;;
9852;SDS011;4965;43.238;27.864;2022-10-31T04:21:18;17.30;;;8.45;;
9852;SDS011;4965;43.238;27.864;2022-10-31T04:23:45;20.52;;;9.70;;
9852;SDS011;4965;43.238;27.864;2022-10-31T04:26:12;27.67;;;11.93;;
9852;SDS011;4965;43.238;27.864;2022-10-31T04:28:39;32.10;;;19.40;;
9852;SDS011;4965;43.238;27.864;2022-10-31T04:31:06;41.97;;;22.63;;
9852;SDS011;4965;43.238;27.864;2022-10-31T04:33:33;53.03;;;37.75;;
9852;SDS011;4965;43.238;27.864;2022-10-31T04:35:59;59.90;;;43.42;;
9852;SDS011;4965;43.238;27.864;2022-10-31T04:38:28;70.65;;;46.45;;
9852;SDS011;4965;43.238;27.864;2022-10-31T04:40:54;64.28;;;43.67;;
9852;SDS011;4965;43.238;27.864;2022-10-31T04:43:21;58.38;;;41.55;;
9852;SDS011;4965;43.238;27.864;2022-10-31T04:45:48;75.07;;;43.10;;
9852;SDS011;4965;43.238;27.864;2022-10-31T04:48:15;65.05;;;43.08;;
9852;SDS011;4965;43.238;27.864;2022-10-31T04:50:42;58.33;;;42.83;;
9852;SDS011;4965;43.238;27.864;2022-10-31T04:53:09;58.47;;;42.25;;
9852;SDS011;4965;43.238;27.864;2022-10-31T04:55:38;61.40;;;40.95;;
9852;SDS011;4965;43.238;27.864;2022-10-31T04:58:04;65.05;;;43.10;;
9852;SDS011;4965;43.238;27.864;2022-10-31T05:00:31;65.18;;;42.13;;
9852;SDS011;4965;43.238;27.864;2022-10-31T05:02:58;47.58;;;33.65;;
9852;SDS011;4965;43.238;27.864;2022-10-31T05:05:26;31.60;;;19.48;;
9852;SDS011;4965;43.238;27.864;2022-10-31T05:07:55;61.10;;;36.92;;
9852;SDS011;4965;43.238;27.864;2022-10-31T05:10:22;54.15;;;35.03;;
9852;SDS011;4965;43.238;27.864;2022-10-31T05:12:52;57.33;;;35.33;;
9852;SDS011;4965;43.238;27.864;2022-10-31T05:15:21;65.00;;;35.80;;
9852;SDS011;4965;43.238;27.864;2022-10-31T05:17:49;48.55;;;33.55;;
9852;SDS011;4965;43.238;27.864;2022-10-31T05:20:17;63.58;;;33.20;;
9852;SDS011;4965;43.238;27.864;2022-10-31T05:22:46;56.42;;;35.28;;
9852;SDS011;4965;43.238;27.864;2022-10-31T05:25:15;71.95;;;36.60;;
9852;SDS011;4965;43.238;27.864;2022-10-31T05:27:44;60.17;;;36.75;;
9852;SDS011;4965;43.238;27.864;2022-10-31T05:30:14;62.47;;;36.03;;
9852;SDS011;4965;43.238;27.864;2022-10-31T05:32:43;59.30;;;34.47;;
9852;SDS011;4965;43.238;27.864;2022-10-31T05:35:12;53.85;;;30.65;;
9852;SDS011;4965;43.238;27.864;2022-10-31T05:37:46;41.30;;;24.65;;
9852;SDS011;4965;43.238;27.864;2022-10-31T05:40:14;36.58;;;22.63;;
9852;SDS011;4965;43.238;27.864;2022-10-31T05:42:43;16.45;;;11.32;;
9852;SDS011;4965;43.238;27.864;2022-10-31T05:45:11;24.70;;;12.45;;
9852;SDS011;4965;43.238;27.864;2022-10-31T05:47:41;26.73;;;9.82;;
9852;SDS011;4965;43.238;27.864;2022-10-31T05:50:09;16.63;;;9.65;;
9852;SDS011;4965;43.238;27.864;2022-10-31T05:52:36;16.65;;;9.52;;
9852;SDS011;4965;43.238;27.864;2022-10-31T05:55:03;21.25;;;10.25;;
9852;SDS011;4965;43.238;27.864;2022-10-31T05:57:31;27.52;;;14.68;;
9852;SDS011;4965;43.238;27.864;2022-10-31T05:59:59;28.85;;;16.33;;
9852;SDS011;4965;43.238;27.864;2022-10-31T06:02:26;32.15;;;16.65;;
9852;SDS011;4965;43.238;27.864;2022-10-31T06:04:59;26.20;;;15.45;;
9852;SDS011;4965;43.238;27.864;2022-10-31T06:07:26;28.08;;;13.23;;
9852;SDS011;4965;43.238;27.864;2022-10-31T06:09:53;22.60;;;11.15;;
9852;SDS011;4965;43.238;27.864;2022-10-31T06:12:20;32.45;;;12.73;;
9852;SDS011;4965;43.238;27.864;2022-10-31T06:14:47;20.35;;;11.82;;
9852;SDS011;4965;43.238;27.864;2022-10-31T06:17:13;22.35;;;13.10;;
9852;SDS011;4965;43.238;27.864;2022-10-31T06:19:41;16.55;;;11.30;;
9852;SDS011;4965;43.238;27.864;2022-10-31T06:22:09;27.23;;;12.25;;
9852;SDS011;4965;43.238;27.864;2022-10-31T06:24:37;31.40;;;17.10;;
9852;SDS011;4965;43.238;27.864;2022-10-31T06:27:04;39.78;;;19.88;;
9852;SDS011;4965;43.238;27.864;2022-10-31T06:29:31;38.72;;;17.33;;
9852;SDS011;4965;43.238;27.864;2022-10-31T06:31:58;35.35;;;15.77;;
9852;SDS011;4965;43.238;27.864;2022-10-31T06:34:25;29.85;;;17.33;;
9852;SDS011;4965;43.238;27.864;2022-10-31T06:36:52;50.90;;;18.50;;
9852;SDS011;4965;43.238;27.864;2022-10-31T06:39:20;34.40;;;19.30;;
9852;SDS011;4965;43.238;27.864;2022-10-31T06:41:47;39.03;;;18.52;;
9852;SDS011;4965;43.238;27.864;2022-10-31T06:44:14;29.58;;;18.67;;
9852;SDS011;4965;43.238;27.864;2022-10-31T06:46:41;31.73;;;18.70;;
9852;SDS011;4965;43.238;27.864;2022-10-31T06:49:08;30.30;;;16.30;;
9852;SDS011;4965;43.238;27.864;2022-10-31T06:51:35;33.50;;;16.25;;
9852;SDS011;4965;43.238;27.864;2022-10-31T06:54:02;41.85;;;18.30;;
9852;SDS011;4965;43.238;27.864;2022-10-31T06:56:31;36.80;;;18.05;;
9852;SDS011;4965;43.238;27.864;2022-10-31T06:58:57;40.47;;;19.88;;
9852;SDS011;4965;43.238;27.864;2022-10-31T07:01:28;33.08;;;17.83;;
9852;SDS011;4965;43.238;27.864;2022-10-31T07:03:55;45.40;;;17.88;;
9852;SDS011;4965;43.238;27.864;2022-10-31T07:06:22;31.95;;;18.08;;
9852;SDS011;4965;43.238;27.864;2022-10-31T07:08:48;28.95;;;16.83;;
9852;SDS011;4965;43.238;27.864;2022-10-31T07:11:16;30.17;;;15.57;;
9852;SDS011;4965;43.238;27.864;2022-10-31T07:13:45;33.40;;;17.90;;
9852;SDS011;4965;43.238;27.864;2022-10-31T07:16:12;34.33;;;18.63;;
9852;SDS011;4965;43.238;27.864;2022-10-31T07:18:39;29.83;;;16.27;;
9852;SDS011;4965;43.238;27.864;2022-10-31T07:21:06;30.52;;;16.00;;
9852;SDS011;4965;43.238;27.864;2022-10-31T07:23:32;34.70;;;18.20;;
9852;SDS011;4965;43.238;27.864;2022-10-31T07:25:59;36.53;;;17.90;;
9852;SDS011;4965;43.238;27.864;2022-10-31T07:28:27;34.65;;;17.83;;
9852;SDS011;4965;43.238;27.864;2022-10-31T07:30:55;27.95;;;17.70;;
9852;SDS011;4965;43.238;27.864;2022-10-31T07:33:23;41.88;;;18.77;;
9852;SDS011;4965;43.238;27.864;2022-10-31T07:35:52;40.28;;;18.65;;
9852;SDS011;4965;43.238;27.864;2022-10-31T07:38:19;47.88;;;18.65;;
9852;SDS011;4965;43.238;27.864;2022-10-31T07:40:49;49.25;;;19.00;;
9852;SDS011;4965;43.238;27.864;2022-10-31T07:43:17;42.55;;;18.02;;
9852;SDS011;4965;43.238;27.864;2022-10-31T07:45:44;28.77;;;17.02;;
9852;SDS011;4965;43.238;27.864;2022-10-31T07:48:19;25.42;;;15.10;;
9852;SDS011;4965;43.238;27.864;2022-10-31T07:50:46;30.25;;;15.25;;
9852;SDS011;4965;43.238;27.864;2022-10-31T07:53:14;32.75;;;15.82;;
9852;SDS011;4965;43.238;27.864;2022-10-31T07:55:41;23.90;;;15.43;;
9852;SDS011;4965;43.238;27.864;2022-10-31T07:58:09;36.17;;;15.48;;
9852;SDS011;4965;43.238;27.864;2022-10-31T08:00:37;23.92;;;14.05;;
9852;SDS011;4965;43.238;27.864;2022-10-31T08:03:06;23.05;;;15.48;;
9852;SDS011;4965;43.238;27.864;2022-10-31T08:05:36;25.10;;;14.20;;
9852;SDS011;4965;43.238;27.864;2022-10-31T08:08:03;28.65;;;14.43;;
9852;SDS011;4965;43.238;27.864;2022-10-31T08:10:31;27.75;;;15.38;;
9852;SDS011;4965;43.238;27.864;2022-10-31T08:12:59;27.55;;;14.38;;
9852;SDS011;4965;43.238;27.864;2022-10-31T08:15:28;27.00;;;14.38;;
9852;SDS011;4965;43.238;27.864;2022-10-31T08:17:56;21.58;;;13.55;;
9852;SDS011;4965;43.238;27.864;2022-10-31T08:20:23;22.38;;;15.07;;
9852;SDS011;4965;43.238;27.864;2022-10-31T08:22:56;24.00;;;14.23;;
9852;SDS011;4965;43.238;27.864;2022-10-31T08:25:25;30.88;;;14.88;;
9852;SDS011;4965;43.238;27.864;2022-10-31T08:27:54;28.90;;;14.52;;
9852;SDS011;4965;43.238;27.864;2022-10-31T08:30:23;28.20;;;14.60;;
9852;SDS011;4965;43.238;27.864;2022-10-31T08:32:58;23.70;;;13.68;;
9852;SDS011;4965;43.238;27.864;2022-10-31T08:35:27;26.90;;;14.32;;
9852;SDS011;4965;43.238;27.864;2022-10-31T08:37:55;22.92;;;14.57;;
9852;SDS011;4965;43.238;27.864;2022-10-31T08:40:23;25.92;;;15.80;;
9852;SDS011;4965;43.238;27.864;2022-10-31T08:42:57;25.60;;;15.18;;
9852;SDS011;4965;43.238;27.864;2022-10-31T08:45:27;25.83;;;13.70;;
9852;SDS011;4965;43.238;27.864;2022-10-31T08:47:58;22.33;;;13.95;;
9852;SDS011;4965;43.238;27.864;2022-10-31T08:50:26;23.80;;;13.45;;
9852;SDS011;4965;43.238;27.864;2022-10-31T08:53:00;26.35;;;14.15;;
9852;SDS011;4965;43.238;27.864;2022-10-31T08:55:27;28.70;;;15.95;;
9852;SDS011;4965;43.238;27.864;2022-10-31T08:57:55;28.10;;;13.38;;
9852;SDS011;4965;43.238;27.864;2022-10-31T09:00:22;26.25;;;12.50;;
9852;SDS011;4965;43.238;27.864;2022-10-31T09:02:54;23.58;;;12.95;;
9852;SDS011;4965;43.238;27.864;2022-10-31T09:05:21;22.85;;;12.65;;
9852;SDS011;4965;43.238;27.864;2022-10-31T09:07:48;22.38;;;13.10;;
9852;SDS011;4965;43.238;27.864;2022-10-31T09:10:17;25.85;;;13.20;;
9852;SDS011;4965;43.238;27.864;2022-10-31T09:12:44;20.10;;;12.15;;
9852;SDS011;4965;43.238;27.864;2022-10-31T09:15:11;24.35;;;12.30;;
9852;SDS011;4965;43.238;27.864;2022-10-31T09:17:38;21.23;;;12.63;;
9852;SDS011;4965;43.238;27.864;2022-10-31T09:20:05;23.80;;;11.93;;
9852;SDS011;4965;43.238;27.864;2022-10-31T09:22:32;25.83;;;12.77;;
9852;SDS011;4965;43.238;27.864;2022-10-31T09:24:59;28.67;;;14.15;;
9852;SDS011;4965;43.238;27.864;2022-10-31T09:27:28;22.13;;;12.93;;
9852;SDS011;4965;43.238;27.864;2022-10-31T09:29:55;24.23;;;14.25;;
9852;SDS011;4965;43.238;27.864;2022-10-31T09:32:22;27.90;;;14.35;;
9852;SDS011;4965;43.238;27.864;2022-10-31T09:34:49;25.90;;;13.70;;
9852;SDS011;4965;43.238;27.864;2022-10-31T09:37:16;33.92;;;13.73;;
9852;SDS011;4965;43.238;27.864;2022-10-31T09:39:42;19.20;;;12.55;;
9852;SDS011;4965;43.238;27.864;2022-10-31T09:42:24;24.23;;;13.82;;
9852;SDS011;4965;43.238;27.864;2022-10-31T09:45:04;28.63;;;14.20;;
9852;SDS011;4965;43.238;27.864;2022-10-31T09:47:40;26.98;;;14.40;;
9852;SDS011;4965;43.238;27.864;2022-10-31T09:50:18;29.52;;;13.95;;
9852;SDS011;4965;43.238;27.864;2022-10-31T09:52:50;32.10;;;14.45;;
9852;SDS011;4965;43.238;27.864;2022-10-31T09:55:25;28.35;;;14.52;;
9852;SDS011;4965;43.238;27.864;2022-10-31T09:58:00;17.80;;;13.32;;
9852;SDS011;4965;43.238;27.864;2022-10-31T10:00:28;21.67;;;13.18;;
9852;SDS011;4965;43.238;27.864;2022-10-31T10:02:57;20.17;;;13.05;;
9852;SDS011;4965;43.238;27.864;2022-10-31T10:05:36;31.55;;;12.63;;
9852;SDS011;4965;43.238;27.864;2022-10-31T10:08:07;21.77;;;12.98;;
9852;SDS011;4965;43.238;27.864;2022-10-31T10:10:41;22.13;;;12.32;;
9852;SDS011;4965;43.238;27.864;2022-10-31T10:13:26;57.42;;;14.10;;
9852;SDS011;4965;43.238;27.864;2022-10-31T10:16:20;22.15;;;13.10;;
9852;SDS011;4965;43.238;27.864;2022-10-31T10:19:00;22.50;;;12.80;;
9852;SDS011;4965;43.238;27.864;2022-10-31T10:21:36;20.27;;;12.43;;
9852;SDS011;4965;43.238;27.864;2022-10-31T10:24:15;23.20;;;13.27;;
9852;SDS011;4965;43.238;27.864;2022-10-31T10:26:52;21.40;;;12.30;;
9852;SDS011;4965;43.238;27.864;2022-10-31T10:29:31;24.30;;;11.63;;
9852;SDS011;4965;43.238;27.864;2022-10-31T10:32:06;23.73;;;10.18;;
9852;SDS011;4965;43.238;27.864;2022-10-31T10:34:39;22.95;;;11.60;;
9852;SDS011;4965;43.238;27.864;2022-10-31T10:37:13;22.15;;;10.60;;
9852;SDS011;4965;43.238;27.864;2022-10-31T10:39:48;18.23;;;9.75;;
9852;SDS011;4965;43.238;27.864;2022-10-31T10:42:20;22.65;;;10.45;;
9852;SDS011;4965;43.238;27.864;2022-10-31T10:45:13;28.35;;;10.05;;
9852;SDS011;4965;43.238;27.864;2022-10-31T10:48:00;20.90;;;11.00;;
9852;SDS011;4965;43.238;27.864;2022-10-31T10:50:35;18.63;;;10.55;;
9852;SDS011;4965;43.238;27.864;2022-10-31T10:53:08;18.60;;;10.52;;
9852;SDS011;4965;43.238;27.864;2022-10-31T10:55:48;22.58;;;9.40;;
9852;SDS011;4965;43.238;27.864;2022-10-31T10:58:19;22.63;;;8.93;;
9852;SDS011;4965;43.238;27.864;2022-10-31T11:00:47;27.98;;;9.30;;
9852;SDS011;4965;43.238;27.864;2022-10-31T11:03:16;17.58;;;9.18;;
9852;SDS011;4965;43.238;27.864;2022-10-31T11:05:44;15.63;;;8.75;;
9852;SDS011;4965;43.238;27.864;2022-10-31T11:08:22;15.90;;;9.32;;
9852;SDS011;4965;43.238;27.864;2022-10-31T11:10:55;22.38;;;9.50;;
9852;SDS011;4965;43.238;27.864;2022-10-31T11:13:25;19.92;;;9.85;;
9852;SDS011;4965;43.238;27.864;2022-10-31T11:15:58;21.30;;;10.35;;
9852;SDS011;4965;43.238;27.864;2022-10-31T11:18:29;21.73;;;9.52;;
9852;SDS011;4965;43.238;27.864;2022-10-31T11:20:58;23.10;;;10.52;;
9852;SDS011;4965;43.238;27.864;2022-10-31T11:23:28;24.02;;;9.18;;
9852;SDS011;4965;43.238;27.864;2022-10-31T11:25:55;21.05;;;9.50;;
9852;SDS011;4965;43.238;27.864;2022-10-31T11:28:23;15.38;;;8.73;;
9852;SDS011;4965;43.238;27.864;2022-10-31T11:30:51;16.50;;;8.52;;
9852;SDS011;4965;43.238;27.864;2022-10-31T11:33:24;20.05;;;8.55;;
9852;SDS011;4965;43.238;27.864;2022-10-31T11:35:56;22.75;;;9.00;;
9852;SDS011;4965;43.238;27.864;2022-10-31T11:38:26;16.65;;;8.65;;
9852;SDS011;4965;43.238;27.864;2022-10-31T11:41:00;17.30;;;8.80;;
9852;SDS011;4965;43.238;27.864;2022-10-31T11:43:35;19.45;;;8.25;;
9852;SDS011;4965;43.238;27.864;2022-10-31T11:46:08;21.10;;;9.27;;
9852;SDS011;4965;43.238;27.864;2022-10-31T11:48:38;17.08;;;7.82;;
9852;SDS011;4965;43.238;27.864;2022-10-31T11:51:05;13.52;;;7.38;;
9852;SDS011;4965;43.238;27.864;2022-10-31T11:53:33;16.55;;;8.90;;
9852;SDS011;4965;43.238;27.864;2022-10-31T11:56:03;16.83;;;8.43;;
9852;SDS011;4965;43.238;27.864;2022-10-31T11:58:32;12.38;;;8.15;;
9852;SDS011;4965;43.238;27.864;2022-10-31T12:00:59;19.00;;;8.27;;
9852;SDS011;4965;43.238;27.864;2022-10-31T12:06:19;14.45;;;8.15;;
9852;SDS011;4965;43.238;27.864;2022-10-31T12:08:49;11.75;;;7.85;;
9852;SDS011;4965;43.238;27.864;2022-10-31T12:14:25;14.65;;;8.02;;
9852;SDS011;4965;43.238;27.864;2022-10-31T12:17:01;18.50;;;7.35;;
9852;SDS011;4965;43.238;27.864;2022-10-31T12:19:35;17.70;;;8.02;;
9852;SDS011;4965;43.238;27.864;2022-10-31T12:22:11;16.63;;;6.97;;
9852;SDS011;4965;43.238;27.864;2022-10-31T12:24:54;13.65;;;7.03;;
9852;SDS011;4965;43.238;27.864;2022-10-31T12:27:34;8.38;;;6.22;;
9852;SDS011;4965;43.238;27.864;2022-10-31T12:30:17;14.63;;;7.55;;
9852;SDS011;4965;43.238;27.864;2022-10-31T12:32:53;11.85;;;7.78;;
9852;SDS011;4965;43.238;27.864;2022-10-31T12:35:40;21.08;;;6.97;;
9852;SDS011;4965;43.238;27.864;2022-10-31T12:38:26;11.80;;;7.13;;
9852;SDS011;4965;43.238;27.864;2022-10-31T12:41:09;13.38;;;7.55;;
9852;SDS011;4965;43.238;27.864;2022-10-31T12:43:46;13.73;;;7.50;;
9852;SDS011;4965;43.238;27.864;2022-10-31T12:46:24;11.13;;;6.90;;
9852;SDS011;4965;43.238;27.864;2022-10-31T12:49:04;18.65;;;6.80;;
9852;SDS011;4965;43.238;27.864;2022-10-31T12:51:49;29.80;;;8.88;;
9852;SDS011;4965;43.238;27.864;2022-10-31T12:54:29;15.15;;;7.75;;
9852;SDS011;4965;43.238;27.864;2022-10-31T12:57:07;11.95;;;7.63;;
9852;SDS011;4965;43.238;27.864;2022-10-31T12:59:46;13.02;;;7.32;;
9852;SDS011;4965;43.238;27.864;2022-10-31T13:02:18;18.77;;;7.80;;
9852;SDS011;4965;43.238;27.864;2022-10-31T13:04:50;14.48;;;8.18;;
9852;SDS011;4965;43.238;27.864;2022-10-31T13:07:23;15.70;;;8.18;;
9852;SDS011;4965;43.238;27.864;2022-10-31T13:09:55;11.88;;;7.00;;
9852;SDS011;4965;43.238;27.864;2022-10-31T13:12:27;16.05;;;7.57;;
9852;SDS011;4965;43.238;27.864;2022-10-31T13:14:58;13.88;;;7.15;;
9852;SDS011;4965;43.238;27.864;2022-10-31T13:17:34;12.57;;;6.78;;
9852;SDS011;4965;43.238;27.864;2022-10-31T13:20:16;16.90;;;7.95;;
9852;SDS011;4965;43.238;27.864;2022-10-31T13:22:48;12.02;;;7.30;;
9852;SDS011;4965;43.238;27.864;2022-10-31T13:25:19;11.43;;;6.95;;
9852;SDS011;4965;43.238;27.864;2022-10-31T13:27:51;17.65;;;7.82;;
9852;SDS011;4965;43.238;27.864;2022-10-31T13:30:22;15.98;;;7.53;;
9852;SDS011;4965;43.238;27.864;2022-10-31T13:32:52;13.35;;;7.13;;
9852;SDS011;4965;43.238;27.864;2022-10-31T13:35:27;13.65;;;6.55;;
9852;SDS011;4965;43.238;27.864;2022-10-31T13:38:03;14.77;;;6.90;;
9852;SDS011;4965;43.238;27.864;2022-10-31T13:40:38;24.67;;;7.53;;
9852;SDS011;4965;43.238;27.864;2022-10-31T13:43:19;14.90;;;8.30;;
9852;SDS011;4965;43.238;27.864;2022-10-31T13:45:55;15.65;;;7.22;;
9852;SDS011;4965;43.238;27.864;2022-10-31T13:48:39;19.98;;;7.70;;
9852;SDS011;4965;43.238;27.864;2022-10-31T13:51:08;13.48;;;7.18;;
9852;SDS011;4965;43.238;27.864;2022-10-31T13:53:42;16.70;;;7.75;;
9852;SDS011;4965;43.238;27.864;2022-10-31T13:56:15;13.63;;;6.82;;
9852;SDS011;4965;43.238;27.864;2022-10-31T13:58:55;12.77;;;6.55;;
9852;SDS011;4965;43.238;27.864;2022-10-31T14:01:24;16.15;;;7.55;;
9852;SDS011;4965;43.238;27.864;2022-10-31T14:03:58;11.68;;;7.30;;
9852;SDS011;4965;43.238;27.864;2022-10-31T14:06:36;18.52;;;7.25;;
9852;SDS011;4965;43.238;27.864;2022-10-31T14:09:14;13.18;;;7.20;;
9852;SDS011;4965;43.238;27.864;2022-10-31T14:11:47;11.77;;;6.18;;
9852;SDS011;4965;43.238;27.864;2022-10-31T14:14:16;19.58;;;6.25;;
9852;SDS011;4965;43.238;27.864;2022-10-31T14:16:44;10.93;;;3.55;;
9852;SDS011;4965;43.238;27.864;2022-10-31T14:19:20;6.32;;;2.80;;
9852;SDS011;4965;43.238;27.864;2022-10-31T14:21:48;6.93;;;3.30;;
9852;SDS011;4965;43.238;27.864;2022-10-31T14:24:16;5.35;;;3.40;;
9852;SDS011;4965;43.238;27.864;2022-10-31T14:26:58;5.78;;;3.47;;
9852;SDS011;4965;43.238;27.864;2022-10-31T14:29:27;3.53;;;3.10;;
9852;SDS011;4965;43.238;27.864;2022-10-31T14:31:56;5.93;;;3.20;;
9852;SDS011;4965;43.238;27.864;2022-10-31T14:34:41;5.25;;;3.17;;
9852;SDS011;4965;43.238;27.864;2022-10-31T14:37:32;7.55;;;2.92;;
9852;SDS011;4965;43.238;27.864;2022-10-31T14:40:20;7.05;;;3.17;;
9852;SDS011;4965;43.238;27.864;2022-10-31T14:43:03;7.78;;;3.95;;
9852;SDS011;4965;43.238;27.864;2022-10-31T14:46:06;6.00;;;3.42;;
9852;SDS011;4965;43.238;27.864;2022-10-31T14:48:47;17.02;;;4.38;;
9852;SDS011;4965;43.238;27.864;2022-10-31T14:51:39;4.03;;;3.30;;
9852;SDS011;4965;43.238;27.864;2022-10-31T14:54:10;8.38;;;3.53;;
9852;SDS011;4965;43.238;27.864;2022-10-31T14:56:43;8.63;;;3.70;;
9852;SDS011;4965;43.238;27.864;2022-10-31T14:59:15;14.35;;;4.15;;
9852;SDS011;4965;43.238;27.864;2022-10-31T15:01:50;9.35;;;4.30;;
9852;SDS011;4965;43.238;27.864;2022-10-31T15:04:23;9.30;;;3.95;;
9852;SDS011;4965;43.238;27.864;2022-10-31T15:06:54;7.50;;;3.28;;
9852;SDS011;4965;43.238;27.864;2022-10-31T15:09:29;5.95;;;3.78;;
9852;SDS011;4965;43.238;27.864;2022-10-31T15:11:57;13.73;;;6.30;;
9852;SDS011;4965;43.238;27.864;2022-10-31T15:14:25;17.70;;;6.68;;
9852;SDS011;4965;43.238;27.864;2022-10-31T15:16:53;10.95;;;5.15;;
9852;SDS011;4965;43.238;27.864;2022-10-31T15:19:23;14.00;;;6.13;;